createdAt,value
2018-09-15T00:01:44.375Z,12.90
2018-09-15T00:04:13.001Z,12.90
2018-09-15T00:06:41.441Z,12.90
2018-09-15T00:09:10.258Z,12.90
2018-09-15T00:11:39.215Z,12.90
2018-09-15T00:14:07.572Z,12.90
2018-09-15T00:16:36.071Z,12.90
2018-09-15T00:19:04.350Z,12.90
2018-09-15T00:21:32.617Z,12.90
2018-09-15T00:24:01.108Z,12.90
2018-09-15T00:26:29.395Z,12.90
2018-09-15T00:28:57.668Z,12.90
2018-09-15T00:31:25.997Z,12.90
2018-09-15T00:33:54.242Z,12.80
2018-09-15T00:36:27.427Z,12.80
2018-09-15T00:38:55.966Z,12.80
2018-09-15T00:41:24.430Z,12.70
2018-09-15T00:43:53.040Z,12.70
2018-09-15T00:46:21.418Z,12.60
2018-09-15T00:48:49.681Z,12.60
2018-09-15T00:51:18.585Z,12.60
2018-09-15T00:53:46.908Z,12.50
2018-09-15T00:56:15.569Z,12.50
2018-09-15T00:58:44.200Z,12.40
2018-09-15T01:01:12.541Z,12.40
2018-09-15T01:03:40.947Z,12.40
2018-09-15T01:06:09.465Z,12.30
2018-09-15T01:08:37.725Z,12.30
2018-09-15T01:11:05.953Z,12.20
2018-09-15T01:13:34.701Z,12.20
2018-09-15T01:16:03.242Z,12.20
2018-09-15T01:18:31.526Z,12.10
2018-09-15T01:20:59.821Z,12.10
2018-09-15T01:23:28.071Z,12.00
2018-09-15T01:25:56.391Z,12.00
2018-09-15T01:28:24.826Z,11.90
2018-09-15T01:30:53.087Z,11.90
2018-09-15T01:33:21.553Z,11.90
2018-09-15T01:35:49.748Z,11.80
2018-09-15T01:38:18.054Z,11.80
2018-09-15T01:40:46.509Z,11.80
2018-09-15T01:43:14.763Z,11.80
2018-09-15T01:45:42.976Z,11.70
2018-09-15T01:48:11.356Z,11.70
2018-09-15T01:50:39.606Z,11.70
2018-09-15T01:53:07.942Z,11.60
2018-09-15T01:55:36.208Z,11.60
2018-09-15T01:58:04.764Z,11.70
2018-09-15T02:00:33.195Z,11.60
2018-09-15T02:03:01.460Z,11.60
2018-09-15T02:05:29.701Z,11.70
2018-09-15T02:07:57.979Z,11.70
2018-09-15T02:10:26.246Z,11.70
2018-09-15T02:12:54.709Z,11.70
2018-09-15T02:15:23.127Z,11.60
2018-09-15T02:17:51.356Z,11.70
2018-09-15T02:20:19.637Z,11.60
2018-09-15T02:22:47.890Z,11.60
2018-09-15T02:25:16.165Z,11.60
2018-09-15T02:27:44.391Z,11.60
2018-09-15T02:30:12.870Z,11.50
2018-09-15T02:32:41.220Z,11.50
2018-09-15T02:35:09.585Z,11.40
2018-09-15T02:37:37.781Z,11.40
2018-09-15T02:40:06.373Z,11.40
2018-09-15T02:42:34.808Z,11.40
2018-09-15T02:45:03.314Z,11.30
2018-09-15T02:47:31.628Z,11.30
2018-09-15T02:50:00.169Z,11.20
2018-09-15T02:52:28.457Z,11.20
2018-09-15T02:54:56.872Z,11.20
2018-09-15T02:57:25.137Z,11.10
2018-09-15T02:59:53.888Z,11.10
2018-09-15T03:02:22.309Z,11.10
2018-09-15T03:04:51.084Z,11.00
2018-09-15T03:07:19.332Z,11.00
2018-09-15T03:09:47.698Z,10.90
2018-09-15T03:12:16.195Z,10.90
2018-09-15T03:14:44.437Z,10.90
2018-09-15T03:17:13.043Z,10.80
2018-09-15T03:19:41.693Z,10.80
2018-09-15T03:22:10.011Z,10.80
2018-09-15T03:24:38.592Z,10.70
2018-09-15T03:27:07.073Z,10.70
2018-09-15T03:29:35.450Z,10.70
2018-09-15T03:32:03.691Z,10.60
2018-09-15T03:34:32.153Z,10.60
2018-09-15T03:37:00.352Z,10.60
2018-09-15T03:39:28.593Z,10.60
2018-09-15T03:41:57.095Z,10.50
2018-09-15T03:44:25.377Z,10.50
2018-09-15T03:46:53.705Z,10.50
2018-09-15T03:49:23.395Z,10.40
2018-09-15T03:51:51.742Z,10.40
2018-09-15T03:54:21.197Z,10.40
2018-09-15T03:56:50.062Z,10.30
2018-09-15T03:59:18.536Z,10.30
2018-09-15T04:01:47.437Z,10.30
2018-09-15T04:04:15.848Z,10.30
2018-09-15T04:06:44.247Z,10.20
2018-09-15T04:09:12.660Z,10.20
2018-09-15T04:11:40.933Z,10.20
2018-09-15T04:14:09.520Z,10.20
2018-09-15T04:16:37.993Z,10.20
2018-09-15T04:19:06.462Z,10.20
2018-09-15T04:21:34.756Z,10.10
2018-09-15T04:24:03.080Z,10.10
2018-09-15T04:26:31.387Z,10.10
2018-09-15T04:28:59.791Z,10.10
2018-09-15T04:31:28.026Z,10.10
2018-09-15T04:33:56.796Z,10.00
2018-09-15T04:36:25.103Z,10.00
2018-09-15T04:38:53.529Z,10.00
2018-09-15T04:41:21.785Z,10.00
2018-09-15T04:43:50.054Z,9.90
2018-09-15T04:46:18.408Z,9.90
2018-09-15T04:48:46.607Z,9.90
2018-09-15T04:51:14.851Z,9.90
2018-09-15T04:53:43.075Z,9.90
2018-09-15T04:56:11.460Z,9.90
2018-09-15T04:58:39.707Z,9.90
2018-09-15T05:01:07.974Z,9.90
2018-09-15T05:03:36.372Z,9.90
2018-09-15T05:06:04.817Z,9.90
2018-09-15T05:08:33.112Z,9.90
2018-09-15T05:11:01.550Z,9.90
2018-09-15T05:13:29.964Z,9.90
2018-09-15T05:15:58.390Z,9.90
2018-09-15T05:18:26.805Z,9.90
2018-09-15T05:20:55.247Z,9.90
2018-09-15T05:23:23.487Z,9.90
2018-09-15T05:25:51.748Z,9.90
2018-09-15T05:28:19.919Z,9.90
2018-09-15T05:30:48.129Z,9.90
2018-09-15T05:33:16.327Z,10.00
2018-09-15T05:35:44.542Z,10.10
2018-09-15T05:38:12.992Z,10.10
2018-09-15T05:40:46.129Z,10.10
2018-09-15T05:43:14.345Z,10.20
2018-09-15T05:45:42.531Z,10.20
2018-09-15T05:48:10.735Z,10.20
2018-09-15T05:50:38.930Z,10.20
2018-09-15T05:53:07.141Z,10.20
2018-09-15T05:55:35.314Z,10.10
2018-09-15T05:58:03.565Z,10.20
2018-09-15T06:00:31.817Z,10.20
2018-09-15T06:02:59.989Z,10.20
2018-09-15T06:05:28.201Z,10.30
2018-09-15T06:07:56.500Z,10.30
2018-09-15T06:10:24.695Z,10.30
2018-09-15T06:12:53.030Z,10.30
2018-09-15T06:15:21.257Z,10.40
2018-09-15T06:17:49.468Z,10.40
2018-09-15T06:20:17.629Z,10.50
2018-09-15T06:22:45.933Z,10.50
2018-09-15T06:25:14.104Z,10.50
2018-09-15T06:27:42.308Z,10.50
2018-09-15T06:30:10.536Z,10.50
2018-09-15T06:32:38.729Z,10.60
2018-09-15T06:35:06.918Z,10.70
2018-09-15T06:37:35.139Z,10.80
2018-09-15T06:40:03.428Z,10.80
2018-09-15T06:42:31.629Z,10.90
2018-09-15T06:44:59.864Z,11.00
2018-09-15T06:47:28.050Z,11.10
2018-09-15T06:49:58.916Z,11.10
2018-09-15T06:52:27.121Z,11.20
2018-09-15T06:54:55.414Z,11.30
2018-09-15T06:57:23.644Z,11.40
2018-09-15T06:59:51.882Z,11.50
2018-09-15T07:02:20.158Z,11.70
2018-09-15T07:04:48.680Z,11.80
2018-09-15T07:07:16.941Z,11.90
2018-09-15T07:09:45.164Z,11.90
2018-09-15T07:12:13.533Z,12.00
2018-09-15T07:14:41.816Z,12.00
2018-09-15T07:17:10.241Z,12.00
2018-09-15T07:19:38.424Z,12.10
2018-09-15T07:22:06.650Z,12.20
2018-09-15T07:24:34.877Z,12.20
2018-09-15T07:27:03.192Z,12.40
2018-09-15T07:29:31.501Z,12.50
2018-09-15T07:31:59.966Z,12.60
2018-09-15T07:34:28.021Z,12.70
2018-09-15T07:36:56.247Z,12.80
2018-09-15T07:39:24.445Z,12.90
2018-09-15T07:41:53.719Z,13.10
2018-09-15T07:44:21.916Z,13.20
2018-09-15T07:46:50.136Z,13.30
2018-09-15T07:49:18.493Z,13.30
2018-09-15T07:51:46.758Z,13.30
2018-09-15T07:54:15.044Z,13.30
2018-09-15T07:56:43.335Z,13.30
2018-09-15T07:59:11.597Z,13.30
2018-09-15T08:01:39.986Z,13.40
2018-09-15T08:04:08.226Z,13.40
2018-09-15T08:06:36.463Z,13.50
2018-09-15T08:09:06.337Z,13.60
2018-09-15T08:11:34.538Z,13.80
2018-09-15T08:14:02.850Z,13.90
2018-09-15T08:16:31.081Z,14.00
2018-09-15T08:18:59.732Z,14.10
2018-09-15T08:21:27.956Z,14.20
2018-09-15T08:23:56.239Z,14.30
2018-09-15T08:32:05.591Z,14.80
2018-09-15T08:34:33.869Z,14.80
2018-09-15T08:37:02.115Z,14.80
2018-09-15T08:39:30.427Z,14.70
2018-09-15T08:41:58.693Z,14.70
2018-09-15T08:44:26.884Z,14.70
2018-09-15T08:46:55.097Z,14.70
2018-09-15T08:49:23.488Z,14.80
2018-09-15T08:51:51.866Z,14.90
2018-09-15T08:54:20.087Z,15.10
2018-09-15T08:56:48.350Z,15.30
2018-09-15T08:59:16.562Z,15.40
2018-09-15T09:01:44.894Z,15.50
2018-09-15T09:04:13.150Z,15.70
2018-09-15T09:06:41.359Z,15.70
2018-09-15T09:11:44.650Z,15.80
2018-09-15T09:14:12.919Z,15.80
2018-09-15T09:16:41.124Z,15.80
2018-09-15T09:19:12.555Z,15.80
2018-09-15T09:21:41.124Z,15.80
2018-09-15T09:24:09.372Z,15.80
2018-09-15T09:26:37.639Z,15.90
2018-09-15T09:29:05.908Z,16.10
2018-09-15T09:31:34.145Z,16.10
2018-09-15T09:34:02.375Z,16.30
2018-09-15T09:36:31.563Z,16.30
2018-09-15T09:38:59.706Z,16.20
2018-09-15T09:41:27.998Z,16.20
2018-09-15T09:43:56.212Z,16.10
2018-09-15T09:46:24.507Z,16.00
2018-09-15T09:48:52.799Z,15.90
2018-09-15T09:51:20.976Z,15.90
2018-09-15T09:53:49.115Z,15.80
2018-09-15T09:56:17.325Z,15.80
2018-09-15T09:58:45.520Z,15.80
2018-09-15T10:01:19.195Z,15.80
2018-09-15T10:03:47.309Z,15.90
2018-09-15T10:06:15.467Z,16.00
2018-09-15T10:08:44.244Z,16.10
2018-09-15T10:11:12.800Z,16.30
2018-09-15T10:13:41.031Z,16.40
2018-09-15T10:16:09.334Z,16.50
2018-09-15T10:18:37.508Z,16.60
2018-09-15T10:21:05.788Z,16.60
2018-09-15T10:23:33.949Z,16.70
2018-09-15T10:26:02.185Z,16.80
2018-09-15T10:28:30.384Z,16.80
2018-09-15T10:30:58.568Z,16.80
2018-09-15T10:33:27.889Z,16.80
2018-09-15T10:35:56.006Z,16.80
2018-09-15T10:38:24.223Z,16.80
2018-09-15T10:40:52.381Z,16.90
2018-09-15T10:43:20.555Z,16.90
2018-09-15T10:45:48.745Z,16.90
2018-09-15T10:48:16.848Z,16.90
2018-09-15T10:50:45.032Z,16.90
2018-09-15T10:53:13.203Z,16.90
2018-09-15T10:55:41.381Z,17.00
2018-09-15T10:58:09.579Z,17.00
2018-09-15T11:00:37.787Z,17.00
2018-09-15T11:03:06.020Z,17.00
2018-09-15T11:05:34.185Z,17.00
2018-09-15T11:08:02.389Z,17.00
2018-09-15T11:10:30.530Z,17.10
2018-09-15T11:12:58.868Z,17.20
2018-09-15T11:15:27.383Z,17.40
2018-09-15T11:17:55.766Z,17.60
2018-09-15T11:20:23.977Z,17.70
2018-09-15T11:22:52.811Z,17.80
2018-09-15T11:25:21.954Z,17.90
2018-09-15T11:27:50.137Z,18.00
2018-09-15T11:30:18.339Z,18.00
2018-09-15T11:32:46.679Z,18.20
2018-09-15T11:35:15.013Z,18.30
2018-09-15T11:37:43.299Z,18.40
2018-09-15T11:40:13.951Z,18.30
2018-09-15T11:42:42.154Z,18.30
2018-09-15T11:45:10.424Z,18.20
2018-09-15T11:47:38.688Z,18.10
2018-09-15T11:50:06.939Z,18.00
2018-09-15T11:52:35.305Z,17.90
2018-09-15T11:55:03.563Z,17.90
2018-09-15T11:57:31.766Z,17.80
2018-09-15T12:00:00.000Z,17.70
2018-09-15T12:02:31.368Z,17.70
2018-09-15T12:04:59.652Z,17.70
2018-09-15T12:07:28.481Z,17.70
2018-09-15T12:10:02.312Z,17.80
2018-09-15T12:12:30.642Z,18.10
2018-09-15T12:14:58.854Z,18.20
2018-09-15T12:17:27.436Z,18.50
2018-09-15T12:19:55.633Z,18.60
2018-09-15T12:22:24.004Z,18.60
2018-09-15T12:24:52.191Z,18.70
2018-09-15T12:27:20.433Z,18.90
2018-09-15T12:29:48.603Z,19.10
2018-09-15T12:32:16.765Z,19.30
2018-09-15T12:34:45.039Z,19.50
2018-09-15T12:37:13.767Z,19.70
2018-09-15T12:39:41.932Z,19.90
2018-09-15T12:42:10.182Z,20.10
2018-09-15T12:44:38.458Z,20.20
2018-09-15T12:47:06.684Z,20.40
2018-09-15T12:49:35.067Z,20.50
2018-09-15T12:52:03.314Z,20.70
2018-09-15T12:54:31.684Z,20.70
2018-09-15T12:56:59.890Z,20.80
2018-09-15T12:59:28.049Z,20.90
2018-09-15T13:02:01.125Z,20.90
2018-09-15T13:04:29.316Z,20.80
2018-09-15T13:06:57.610Z,20.50
2018-09-15T13:09:26.365Z,20.40
2018-09-15T13:11:54.761Z,20.40
2018-09-15T13:14:22.986Z,20.40
2018-09-15T13:16:51.289Z,20.40
2018-09-15T13:19:19.696Z,20.30
2018-09-15T13:21:48.031Z,20.20
2018-09-15T13:24:16.361Z,20.10
2018-09-15T13:26:44.606Z,20.00
2018-09-15T13:29:12.985Z,19.90
2018-09-15T13:31:41.346Z,19.80
2018-09-15T13:34:09.620Z,19.70
2018-09-15T13:36:37.882Z,19.70
2018-09-15T13:39:08.275Z,19.70
2018-09-15T13:41:36.520Z,19.70
2018-09-15T13:44:04.849Z,19.70
2018-09-15T13:46:33.066Z,19.70
2018-09-15T13:49:01.312Z,19.70
2018-09-15T13:51:29.584Z,19.70
2018-09-15T13:53:57.966Z,19.80
2018-09-15T13:56:26.212Z,19.80
2018-09-15T13:58:54.608Z,19.80
2018-09-15T14:01:22.785Z,19.90
2018-09-15T14:03:51.020Z,20.00
2018-09-15T14:06:19.203Z,20.00
2018-09-15T14:08:47.431Z,20.10
2018-09-15T14:11:15.753Z,20.10
2018-09-15T14:13:44.127Z,20.00
2018-09-15T14:16:12.411Z,19.90
2018-09-15T14:18:40.636Z,19.90
2018-09-15T14:21:09.009Z,19.90
2018-09-15T14:23:37.248Z,19.90
2018-09-15T14:26:05.552Z,19.90
2018-09-15T14:28:33.804Z,20.00
2018-09-15T14:31:02.118Z,20.00
2018-09-15T14:33:30.320Z,19.90
2018-09-15T14:35:58.613Z,19.90
2018-09-15T14:38:26.849Z,19.80
2018-09-15T14:40:55.206Z,19.80
2018-09-15T14:43:23.499Z,19.80
2018-09-15T14:45:51.734Z,19.80
2018-09-15T14:48:20.018Z,19.80
2018-09-15T14:50:48.268Z,19.70
2018-09-15T14:53:16.485Z,19.70
2018-09-15T14:55:44.892Z,19.70
2018-09-15T14:58:13.288Z,19.70
2018-09-15T15:00:41.528Z,19.70
2018-09-15T15:03:10.581Z,19.60
2018-09-15T15:05:38.788Z,19.60
2018-09-15T15:08:07.017Z,19.50
2018-09-15T15:10:35.219Z,19.50
2018-09-15T15:13:03.434Z,19.50
2018-09-15T15:15:31.787Z,19.50
2018-09-15T15:18:00.026Z,19.40
2018-09-15T15:20:28.229Z,19.40
2018-09-15T15:22:56.775Z,19.40
2018-09-15T15:25:25.022Z,19.30
2018-09-15T15:27:53.292Z,19.30
2018-09-15T15:30:21.652Z,19.30
2018-09-15T15:32:49.904Z,19.30
2018-09-15T15:35:18.091Z,19.30
2018-09-15T15:37:46.404Z,19.30
2018-09-15T15:40:14.685Z,19.30
2018-09-15T15:42:42.917Z,19.30
2018-09-15T15:45:11.142Z,19.30
2018-09-15T15:47:39.383Z,19.20
2018-09-15T15:50:07.825Z,19.20
2018-09-15T15:52:36.054Z,19.20
2018-09-15T15:55:04.292Z,19.10
2018-09-15T15:57:32.583Z,19.10
2018-09-15T16:00:00.804Z,19.10
2018-09-15T16:02:29.173Z,19.00
2018-09-15T16:04:57.395Z,19.00
2018-09-15T16:07:25.654Z,19.00
2018-09-15T16:09:54.017Z,18.90
2018-09-15T16:12:22.241Z,18.90
2018-09-15T16:14:50.594Z,18.90
2018-09-15T16:17:18.872Z,18.90
2018-09-15T16:19:47.255Z,18.80
2018-09-15T16:22:15.401Z,18.80
2018-09-15T16:24:43.791Z,18.80
2018-09-15T16:27:12.041Z,18.70
2018-09-15T16:29:40.370Z,18.70
2018-09-15T16:32:08.663Z,18.60
2018-09-15T16:34:36.962Z,18.60
2018-09-15T16:37:05.209Z,18.50
2018-09-15T16:39:33.756Z,18.50
2018-09-15T16:42:02.067Z,18.40
2018-09-15T16:44:30.304Z,18.30
2018-09-15T16:46:58.612Z,18.30
2018-09-15T16:49:26.945Z,18.30
2018-09-15T16:51:55.212Z,18.20
2018-09-15T16:54:23.413Z,18.10
2018-09-15T16:56:51.752Z,18.10
2018-09-15T16:59:19.939Z,18.00
2018-09-15T17:01:48.271Z,17.90
2018-09-15T17:04:16.475Z,17.90
2018-09-15T17:06:44.731Z,17.80
2018-09-15T17:09:13.065Z,17.80
2018-09-15T17:11:41.290Z,17.70
2018-09-15T17:14:09.549Z,17.70
2018-09-15T17:16:37.890Z,17.60
2018-09-15T17:19:06.291Z,17.50
2018-09-15T17:21:34.751Z,17.50
2018-09-15T17:24:02.994Z,17.40
2018-09-15T17:26:31.530Z,17.30
2018-09-15T17:28:59.756Z,17.30
2018-09-15T17:31:28.246Z,17.20
2018-09-15T17:33:56.527Z,17.10
2018-09-15T17:36:24.829Z,17.00
2018-09-15T17:38:53.085Z,16.90
2018-09-15T17:41:21.590Z,16.90
2018-09-15T17:43:49.790Z,16.80
2018-09-15T17:46:17.981Z,16.70
2018-09-15T17:48:46.261Z,16.60
2018-09-15T17:51:14.469Z,16.50
2018-09-15T17:53:42.765Z,16.50
2018-09-15T17:56:11.059Z,16.40
2018-09-15T17:58:39.424Z,16.30
2018-09-15T18:01:07.707Z,16.20
2018-09-15T18:03:36.011Z,16.10
2018-09-15T18:06:04.497Z,16.00
2018-09-15T18:08:32.838Z,16.00
2018-09-15T18:11:01.145Z,15.90
2018-09-15T18:13:29.440Z,15.80
2018-09-15T18:15:58.033Z,15.80
2018-09-15T18:18:26.285Z,15.70
2018-09-15T18:20:54.528Z,15.70
2018-09-15T18:23:22.935Z,15.60
2018-09-15T18:25:51.193Z,15.60
2018-09-15T18:28:19.523Z,15.50
2018-09-15T18:30:47.802Z,15.40
2018-09-15T18:33:16.053Z,15.40
2018-09-15T18:35:44.371Z,15.30
2018-09-15T18:38:12.676Z,15.20
2018-09-15T18:40:41.107Z,15.10
2018-09-15T18:43:09.333Z,15.10
2018-09-15T18:45:37.806Z,15.00
2018-09-15T18:48:06.058Z,14.90
2018-09-15T18:50:34.506Z,14.90
2018-09-15T18:53:02.770Z,14.90
2018-09-15T18:55:31.027Z,14.80
2018-09-15T18:57:59.330Z,14.80
2018-09-15T19:00:27.558Z,14.70
2018-09-15T19:02:55.821Z,14.70
2018-09-15T19:05:24.118Z,14.60
2018-09-15T19:07:52.366Z,14.60
2018-09-15T19:10:20.752Z,14.50
2018-09-15T19:12:49.062Z,14.50
2018-09-15T19:15:17.386Z,14.40
2018-09-15T19:17:45.641Z,14.40
2018-09-15T19:20:32.521Z,14.40
2018-09-15T19:23:00.935Z,14.40
2018-09-15T19:25:29.277Z,14.30
2018-09-15T19:27:57.569Z,14.30
2018-09-15T19:30:25.821Z,14.30
2018-09-15T19:32:54.080Z,14.20
2018-09-15T19:35:22.341Z,14.20
2018-09-15T19:37:50.712Z,14.10
2018-09-15T19:40:18.954Z,14.00
2018-09-15T19:42:47.578Z,14.00
2018-09-15T19:45:15.835Z,14.00
2018-09-15T19:47:44.132Z,13.90
2018-09-15T19:50:12.373Z,13.90
2018-09-15T19:52:40.674Z,13.90
2018-09-15T19:55:08.930Z,13.80
2018-09-15T19:57:37.381Z,13.80
2018-09-15T20:00:05.837Z,13.80
2018-09-15T20:02:34.786Z,13.70
2018-09-15T20:05:03.098Z,13.70
2018-09-15T20:07:31.332Z,13.60
2018-09-15T20:10:00.046Z,13.60
2018-09-15T20:12:28.301Z,13.60
2018-09-15T20:14:56.785Z,13.50
2018-09-15T20:17:24.142Z,13.50
2018-09-15T20:19:51.371Z,13.50
2018-09-15T20:22:19.651Z,13.40
2018-09-15T20:24:47.988Z,13.40
2018-09-15T20:27:16.171Z,13.40
2018-09-15T20:29:44.497Z,13.40
2018-09-15T20:32:12.821Z,13.30
2018-09-15T20:34:41.106Z,13.30
2018-09-15T20:37:09.757Z,13.30
2018-09-15T20:39:37.961Z,13.30
2018-09-15T20:42:06.181Z,13.20
2018-09-15T20:44:34.651Z,13.20
2018-09-15T20:47:02.982Z,13.20
2018-09-15T20:49:31.715Z,13.20
2018-09-15T20:51:59.962Z,13.10
2018-09-15T20:54:28.246Z,13.10
2018-09-15T20:56:56.502Z,13.10
2018-09-15T20:59:24.739Z,13.00
2018-09-15T21:01:53.184Z,13.00
2018-09-15T21:04:21.463Z,13.00
2018-09-15T21:06:49.872Z,12.90
2018-09-15T21:09:18.178Z,12.90
2018-09-15T21:11:47.061Z,12.90
2018-09-15T21:14:15.461Z,12.80
2018-09-15T21:16:43.880Z,12.80
2018-09-15T21:19:12.319Z,12.70
2018-09-15T21:21:40.563Z,12.70
2018-09-15T21:24:08.803Z,12.70
2018-09-15T21:26:37.183Z,12.60
2018-09-15T21:29:05.591Z,12.60
2018-09-15T21:31:33.935Z,12.60
2018-09-15T21:34:02.221Z,12.50
2018-09-15T21:36:30.484Z,12.40
2018-09-15T21:38:58.705Z,12.40
2018-09-15T21:41:27.120Z,12.40
2018-09-15T21:43:55.424Z,12.40
2018-09-15T21:46:23.892Z,12.30
2018-09-15T21:48:52.105Z,12.30
2018-09-15T21:51:20.540Z,12.30
2018-09-15T21:53:48.764Z,12.30
2018-09-15T21:56:17.150Z,12.30
2018-09-15T21:58:45.731Z,12.20
2018-09-15T22:01:14.011Z,12.20
2018-09-15T22:03:47.704Z,12.20
2018-09-15T22:06:16.036Z,12.10
2018-09-15T22:08:44.270Z,12.10
2018-09-15T22:11:12.961Z,12.10
2018-09-15T22:13:41.177Z,12.00
2018-09-15T22:16:10.092Z,12.00
2018-09-15T22:18:38.512Z,12.00
2018-09-15T22:21:06.888Z,11.90
2018-09-15T22:23:35.489Z,11.90
2018-09-15T22:26:03.715Z,11.80
2018-09-15T22:28:32.736Z,11.80
2018-09-15T22:31:01.139Z,11.80
2018-09-15T22:33:29.526Z,11.80
2018-09-15T22:35:57.785Z,11.70
2018-09-15T22:38:26.060Z,11.70
2018-09-15T22:40:54.291Z,11.60
2018-09-15T22:43:22.675Z,11.60
2018-09-15T22:45:50.886Z,11.60
2018-09-15T22:48:19.414Z,11.60
2018-09-15T22:50:47.619Z,11.60
2018-09-15T22:53:15.893Z,11.50
2018-09-15T22:55:44.209Z,11.50
2018-09-15T22:58:12.526Z,11.40
2018-09-15T23:00:40.750Z,11.40
2018-09-15T23:03:09.034Z,11.40
2018-09-15T23:05:37.203Z,11.40
2018-09-15T23:08:05.563Z,11.30
2018-09-15T23:10:33.768Z,11.40
2018-09-15T23:13:02.072Z,11.30
2018-09-15T23:15:30.487Z,11.30
2018-09-15T23:17:58.904Z,11.20
2018-09-15T23:20:27.138Z,11.30
2018-09-15T23:22:55.353Z,11.20
2018-09-15T23:25:23.618Z,11.20
2018-09-15T23:27:51.925Z,11.10
2018-09-15T23:30:20.258Z,11.10
2018-09-15T23:32:48.473Z,11.10
2018-09-15T23:35:16.748Z,11.10
2018-09-15T23:37:44.987Z,11.00
2018-09-15T23:40:14.218Z,11.00
2018-09-15T23:42:42.606Z,11.00
2018-09-15T23:47:44.489Z,11.00
2018-09-15T23:50:12.719Z,11.00
2018-09-15T23:52:41.295Z,10.90
2018-09-15T23:55:09.738Z,10.90
2018-09-15T23:57:38.009Z,10.90
